Hlavní strana
METAR-TAF:

METAR-TAF

Letiště :

Forlì, Itálie

zeměpisná šířka: 44-12N, zeměpisná délka: 012-04E, výška: 27 m

Aktuální stav počasí

Zpráva byla vytvořena před 44 minutami, v 09:50 UTC
vítr z různých směrů 2 kt
Teplota 16°C
Vlhkost vzduchu 88%
Tlak 1019 hPa
Viditelnost: 3000 m
Polojasno ve výšce 500 ft
Oblačno až skoro zataženo ve výšce 1200 ft
kouřmo

METAR: LIPK 170950Z VRB02KT 3000 BR SCT005 BKN012 16/14 Q1019

Čas: 12:34 (10:34 UTC)


TAF: chybějící

Stav a předpovědi počasí z více než 4 000 letišť (zprávy METAR a TAF).

Červené a žluté tečky na mapě představují dostupné meteorologické stanice.

Když kurzor umístíte na tečku, zobrazí se název stanice.

Pak kliknutím zobrazíte stav a předpověď počasí.

Chcete-li změnit mapu, kliknutím na zelené tlačítko se znaménkem +mapu přiblížíte, kliknutím na zelené tlačítko se znaménkem – mapu oddálíte a kliknutím na zelené šipky přejdete na sousední mapy.


METAR-TAF: